Time;durP1;ratioP1;P1;durP2;ratioP2;P2;SDS_P1;SDS_P2;PMS_P1;PMS_P2;Temp;Humidity;BMP_temperature;BMP_pressure;BME280_temperature;BME280_humidity;BME280_pressure;Samples;Min_cycle;Max_cycle;Signal;HPM_P1;HPM_P2
2023/06/24 00:01:19;;;;;;;4.35;3.92;;;;;;;24.69;45.92;102496.22;5022858;28;20037;-71
2023/06/24 00:03:46;;;;;;;4.57;3.60;;;;;;;24.68;45.97;102482.06;5024294;28;20046;-71
2023/06/24 00:06:18;;;;;;;4.28;3.88;;;;;;;24.68;46.05;102487.41;5020474;28;20163;-70
2023/06/24 00:08:47;;;;;;;4.72;3.78;;;;;;;24.67;46.19;102488.41;5020790;28;20033;-70
2023/06/24 00:11:13;;;;;;;4.57;3.80;;;;;;;24.67;46.14;102491.06;5023715;28;20045;-71
2023/06/24 00:13:43;;;;;;;4.50;3.72;;;;;;;24.68;46.00;102494.56;5022640;28;21590;-71
2023/06/24 00:16:08;;;;;;;;;;;;;;;24.68;46.03;102498.06;5022570;28;20053;-70
2023/06/24 00:18:35;;;;;;;4.25;3.83;;;;;;;24.60;46.22;102486.63;5020586;28;19963;-70
2023/06/24 00:21:04;;;;;;;5.63;3.90;;;;;;;24.65;46.08;102494.91;5025160;28;20044;-71
2023/06/24 00:23:34;;;;;;;3.95;3.55;;;;;;;24.67;46.25;102495.56;5023820;28;20061;-70
2023/06/24 00:26:00;;;;;;;4.35;3.80;;;;;;;24.66;46.22;102499.22;5019350;28;20383;-70
2023/06/24 00:28:25;;;;;;;4.15;3.75;;;;;;;24.66;46.14;102505.38;5022433;28;20037;-70
2023/06/24 00:30:51;;;;;;;3.65;3.35;;;;;;;24.64;46.22;102499.41;5021009;28;20898;-71
2023/06/24 00:33:19;;;;;;;5.10;3.65;;;;;;;24.66;46.00;102501.91;5024344;28;20029;-70
2023/06/24 00:35:45;;;;;;;5.32;3.85;;;;;;;24.61;46.45;102498.94;5020683;28;20065;-70
2023/06/24 00:38:11;;;;;;;4.75;3.45;;;;;;;24.64;46.28;102501.25;5022368;28;20040;-70
2023/06/24 00:40:37;;;;;;;3.85;3.45;;;;;;;24.64;46.13;102504.75;5021079;28;20063;-70
2023/06/24 00:43:04;;;;;;;4.38;3.50;;;;;;;24.64;46.31;102502.06;5024053;28;20097;-69
2023/06/24 00:45:32;;;;;;;4.30;3.50;;;;;;;24.62;46.26;102505.91;5023761;28;20465;-70
2023/06/24 00:48:02;;;;;;;4.25;3.55;;;;;;;24.63;46.17;102504.91;5023555;28;20087;-70
2023/06/24 00:50:28;;;;;;;4.55;3.42;;;;;;;24.63;46.20;102502.25;5022474;28;20038;-70
2023/06/24 00:52:54;;;;;;;3.78;3.38;;;;;;;24.63;46.39;102508.41;5027159;28;20147;-70
2023/06/24 00:55:20;;;;;;;5.35;3.80;;;;;;;24.53;46.20;102494.44;5026248;28;20037;-70
2023/06/24 00:57:51;;;;;;;4.20;3.55;;;;;;;24.62;46.42;102500.59;5026426;28;20041;-70
2023/06/24 01:00:22;;;;;;;4.20;3.63;;;;;;;24.58;46.43;102492.09;5025468;28;20037;-70
2023/06/24 01:02:51;;;;;;;4.88;3.80;;;;;;;24.61;46.39;102499.75;5025129;28;20037;-70
2023/06/24 01:05:17;;;;;;;5.25;3.80;;;;;;;24.58;46.17;102489.41;5027824;28;20096;-70
2023/06/24 01:07:43;;;;;;;4.25;3.55;;;;;;;24.56;46.51;102488.75;5023386;28;20041;-70
2023/06/24 01:10:11;;;;;;;4.75;3.72;;;;;;;24.60;46.49;102491.94;5026789;28;20057;-70
2023/06/24 01:12:40;;;;;;;4.00;3.58;;;;;;;24.60;46.47;102490.09;5028768;28;20040;-70
2023/06/24 01:15:07;;;;;;;4.03;3.63;;;;;;;24.59;46.31;102491.06;5021501;28;20030;-70
2023/06/24 01:18:03;;;;;;;4.10;3.78;;;;;;;24.58;46.60;102486.75;5010939;28;20042;-70
2023/06/24 01:20:37;;;;;;;4.47;3.45;;;;;;;24.57;46.51;102481.59;5043164;28;20051;-70
2023/06/24 01:23:36;;;;;;;4.38;3.72;;;;;;;24.57;46.36;102479.78;5026592;28;20116;-70
2023/06/24 01:26:24;;;;;;;4.68;3.95;;;;;;;24.54;46.72;102481.94;5022665;28;20267;-70
2023/06/24 01:29:11;;;;;;;4.80;3.70;;;;;;;24.56;46.55;102482.59;5025847;28;20041;-70
2023/06/24 01:31:48;;;;;;;4.20;3.58;;;;;;;24.56;46.56;102479.94;5024350;28;20037;-70
2023/06/24 01:34:32;;;;;;;4.28;3.78;;;;;;;24.54;46.66;102480.13;5026977;28;20568;-70
2023/06/24 01:37:13;;;;;;;4.28;3.88;;;;;;;24.52;46.58;102484.78;5024435;28;20721;-70
2023/06/24 01:39:49;;;;;;;4.00;3.60;;;;;;;24.52;46.56;102478.63;5025235;28;20045;-69
2023/06/24 01:42:16;;;;;;;4.10;3.70;;;;;;;24.53;46.61;102483.78;5024285;28;20044;-70
2023/06/24 01:44:44;;;;;;;4.70;3.38;;;;;;;24.54;46.52;102480.13;5026553;28;20467;-70
2023/06/24 01:47:10;;;;;;;5.22;3.95;;;;;;;24.54;46.48;102490.78;5024691;28;20037;-70
2023/06/24 01:49:42;;;;;;;4.18;3.42;;;;;;;24.53;46.42;102485.63;5021822;28;20064;-70
2023/06/24 01:52:10;;;;;;;4.32;3.47;;;;;;;24.52;46.65;102476.81;5025533;28;20095;-70
2023/06/24 01:54:41;;;;;;;3.65;3.35;;;;;;;24.52;46.64;102470.66;5025642;28;20073;-70
2023/06/24 01:57:09;;;;;;;6.25;3.90;;;;;;;24.52;46.47;102471.47;5022592;28;20092;-70
2023/06/24 01:59:38;;;;;;;4.63;3.60;;;;;;;24.53;46.71;102467.81;5040964;28;20044;-70
2023/06/24 02:02:05;;;;;;;4.07;3.17;;;;;;;24.52;46.59;102465.31;5025349;28;20495;-70
2023/06/24 02:04:32;;;;;;;4.05;3.60;;;;;;;24.50;46.59;102472.66;5024982;28;20034;-70
2023/06/24 02:07:02;;;;;;;5.50;3.92;;;;;;;24.51;46.47;102468.97;5021743;28;20096;-70
2023/06/24 02:09:31;;;;;;;4.13;3.42;;;;;;;24.49;46.58;102461.16;5024245;28;20526;-71
2023/06/24 02:11:58;;;;;;;4.05;3.47;;;;;;;24.48;46.69;102456.84;5024698;28;20044;-70
2023/06/24 02:14:27;;;;;;;4.60;3.63;;;;;;;24.49;46.55;102452.34;5028137;28;20570;-69
2023/06/24 02:16:56;;;;;;;4.68;4.00;;;;;;;24.48;46.54;102453.34;5029381;28;20037;-70
2023/06/24 02:19:27;;;;;;;3.85;3.38;;;;;;;24.47;46.66;102452.53;5021964;28;20474;-70
2023/06/24 02:22:00;;;;;;;4.32;3.25;;;;;;;24.46;46.68;102461.50;5025342;28;20434;-70
2023/06/24 02:24:28;;;;;;;5.60;3.90;;;;;;;24.46;46.67;102453.53;5020696;28;20045;-70
2023/06/24 02:26:57;;;;;;;4.10;3.70;;;;;;;24.46;46.82;102452.69;5023534;28;20594;-70
2023/06/24 02:29:24;;;;;;;4.45;3.42;;;;;;;24.44;46.52;102455.53;5021109;28;20129;-70
2023/06/24 02:31:49;;;;;;;4.22;3.78;;;;;;;24.43;46.75;102456.53;5026057;28;20040;-70
2023/06/24 02:34:15;;;;;;;4.53;3.53;;;;;;;24.43;46.52;102455.72;5022192;28;20381;-71
2023/06/24 02:36:41;;;;;;;4.43;4.03;;;;;;;24.43;46.73;102450.38;5024286;28;20152;-70
2023/06/24 02:39:07;;;;;;;4.57;4.00;;;;;;;24.44;46.54;102447.53;5023148;28;20041;-70
2023/06/24 02:41:32;;;;;;;4.45;3.78;;;;;;;24.45;46.49;102443.88;5022703;28;20049;-71
2023/06/24 02:43:58;;;;;;;4.50;3.83;;;;;;;24.43;46.72;102443.22;5024052;28;20033;-70
2023/06/24 02:46:25;;;;;;;4.22;3.67;;;;;;;24.39;46.76;102434.72;5021627;28;20076;-70
2023/06/24 02:48:52;;;;;;;4.35;3.80;;;;;;;24.41;46.79;102443.38;5021097;28;20041;-71
2023/06/24 02:51:19;;;;;;;5.70;3.50;;;;;;;24.44;46.71;102449.38;5023283;28;20037;-70
2023/06/24 02:53:46;;;;;;;4.25;3.63;;;;;;;24.39;46.77;102441.88;5026308;28;20504;-70
2023/06/24 02:56:14;;;;;;;4.50;3.50;;;;;;;24.41;46.59;102450.53;5023306;28;20113;-70
2023/06/24 02:58:42;;;;;;;4.70;4.20;;;;;;;24.38;46.81;102430.41;5023960;28;20060;-70
2023/06/24 03:01:16;;;;;;;4.20;3.60;;;;;;;24.41;46.56;102440.69;5039099;28;20041;-70
2023/06/24 03:03:53;;;;;;;4.13;3.50;;;;;;;24.40;46.75;102444.38;5020255;28;20029;-70
2023/06/24 03:06:18;;;;;;;4.70;3.58;;;;;;;24.39;46.74;102447.22;5025471;28;20033;-70
2023/06/24 03:08:45;;;;;;;4.03;3.50;;;;;;;24.37;46.69;102447.38;5017951;28;20048;-71
2023/06/24 03:11:14;;;;;;;4.30;3.45;;;;;;;24.38;47.07;102453.53;5022612;28;20040;-70
2023/06/24 03:13:41;;;;;;;4.25;3.67;;;;;;;24.37;46.87;102447.38;5021717;28;20132;-70
2023/06/24 03:16:22;;;;;;;6.32;3.55;;;;;;;24.37;46.78;102442.06;5038906;28;20500;-70
2023/06/24 03:18:55;;;;;;;4.85;3.67;;;;;;;24.39;46.75;102450.69;5037368;28;20483;-71
2023/06/24 03:21:21;;;;;;;4.57;3.63;;;;;;;24.36;46.83;102455.53;5005385;28;20042;-70
2023/06/24 03:23:48;;;;;;;4.07;3.55;;;;;;;24.37;46.76;102454.53;5025746;28;20060;-70
2023/06/24 03:26:15;;;;;;;4.13;3.53;;;;;;;24.36;46.79;102453.72;4991851;28;20037;-71
2023/06/24 03:28:42;;;;;;;4.72;3.75;;;;;;;24.37;46.70;102454.53;5019788;28;20041;-70
2023/06/24 03:31:15;;;;;;;4.97;3.70;;;;;;;24.31;46.79;102450.75;5023472;28;20044;-70
2023/06/24 03:33:44;;;;;;;6.10;4.20;;;;;;;24.37;46.77;102452.69;5034200;28;20780;-70
2023/06/24 03:36:10;;;;;;;4.88;3.78;;;;;;;24.35;46.75;102452.06;5038893;28;20523;-70
2023/06/24 03:38:36;;;;;;;4.05;3.65;;;;;;;24.34;46.78;102452.22;5028499;28;20547;-70
2023/06/24 03:41:02;;;;;;;4.35;3.72;;;;;;;24.36;46.70;102445.72;5058414;28;20497;-70
2023/06/24 03:43:27;;;;;;;4.22;3.67;;;;;;;24.35;46.71;102448.56;5023413;28;20041;-70
2023/06/24 03:45:55;;;;;;;4.35;3.70;;;;;;;24.34;46.70;102447.72;5027323;28;20103;-70
2023/06/24 03:48:20;;;;;;;4.70;4.20;;;;;;;24.30;46.87;102435.75;5041317;28;20503;-71
2023/06/24 03:50:46;;;;;;;4.32;3.67;;;;;;;24.34;46.75;102453.06;5023182;28;20076;-71
2023/06/24 03:53:12;;;;;;;4.70;4.00;;;;;;;24.34;46.84;102447.72;5026850;28;20045;-71
2023/06/24 03:55:38;;;;;;;5.35;4.00;;;;;;;24.34;46.85;102449.56;5026889;28;20044;-71
2023/06/24 03:58:04;;;;;;;4.20;3.40;;;;;;;24.32;46.79;102449.72;5023941;28;20060;-70
2023/06/24 04:00:29;;;;;;;4.95;3.83;;;;;;;24.34;46.75;102450.38;5012192;28;20677;-71
2023/06/24 04:02:55;;;;;;;4.90;3.80;;;;;;;24.33;46.68;102454.06;5025961;28;20462;-70
2023/06/24 04:05:21;;;;;;;4.45;3.78;;;;;;;24.34;46.68;102458.38;5026600;28;20694;-70
2023/06/24 04:07:50;;;;;;;5.22;4.07;;;;;;;24.29;46.61;102447.41;5030694;28;20037;-70
2023/06/24 04:10:17;;;;;;;4.28;3.88;;;;;;;24.32;46.85;102462.22;5024718;28;20042;-71
2023/06/24 04:12:44;;;;;;;4.72;3.80;;;;;;;24.31;46.66;102458.72;5008510;28;20043;-70
2023/06/24 04:15:11;;;;;;;4.93;3.83;;;;;;;24.28;46.56;102447.56;5050585;28;20066;-70
2023/06/24 04:17:36;;;;;;;4.22;3.80;;;;;;;24.32;46.73;102452.41;5011478;28;20041;-71
2023/06/24 04:20:05;;;;;;;4.28;3.85;;;;;;;24.32;46.70;102462.22;5052001;28;20107;-70
2023/06/24 04:22:31;;;;;;;3.97;3.42;;;;;;;24.34;46.63;102462.88;5025199;28;20038;-70
2023/06/24 04:24:58;;;;;;;4.68;3.78;;;;;;;24.34;46.51;102460.22;5010409;28;20044;-70
2023/06/24 04:27:24;;;;;;;4.63;3.80;;;;;;;24.33;46.69;102462.03;5025285;28;20494;-71
2023/06/24 04:29:49;;;;;;;4.25;3.58;;;;;;;24.32;46.59;102464.88;5027930;28;20059;-70
2023/06/24 04:32:15;;;;;;;4.38;3.58;;;;;;;24.31;46.53;102461.38;5023971;28;20259;-70
2023/06/24 04:34:40;;;;;;;4.47;3.80;;;;;;;24.34;46.71;102468.19;5021508;28;20053;-71
2023/06/24 04:37:06;;;;;;;4.80;3.70;;;;;;;24.31;46.81;102464.03;5022034;28;20045;-70
2023/06/24 04:39:32;;;;;;;4.63;4.00;;;;;;;24.32;46.62;102463.03;5025113;28;20037;-70
2023/06/24 04:41:58;;;;;;;4.38;3.50;;;;;;;24.31;46.67;102460.56;5023754;28;20586;-70
2023/06/24 04:44:23;;;;;;;4.78;4.03;;;;;;;24.30;46.68;102464.22;5019876;28;20047;-70
2023/06/24 04:46:49;;;;;;;4.13;3.70;;;;;;;24.32;46.75;102463.03;5024442;28;20060;-70
2023/06/24 04:49:14;;;;;;;4.10;3.33;;;;;;;24.34;46.56;102468.19;5021885;28;20048;-71
2023/06/24 04:51:40;;;;;;;3.55;3.25;;;;;;;24.33;46.57;102467.38;5022407;28;20041;-70
2023/06/24 04:54:07;;;;;;;4.63;3.95;;;;;;;24.32;46.49;102467.53;5020835;28;20871;-71
2023/06/24 04:56:34;;;;;;;4.00;3.35;;;;;;;24.33;46.50;102466.53;5023770;28;20499;-70
2023/06/24 04:59:00;;;;;;;4.25;3.45;;;;;;;24.31;46.70;102469.38;5022442;28;20065;-70
2023/06/24 05:01:26;;;;;;;4.47;3.80;;;;;;;24.33;46.58;102475.34;5023827;28;20513;-70
2023/06/24 05:03:51;;;;;;;4.25;3.85;;;;;;;24.32;46.67;102464.88;5022778;28;20037;-70
2023/06/24 05:06:17;;;;;;;4.07;3.60;;;;;;;24.34;46.64;102474.34;5025036;28;20699;-71
2023/06/24 05:08:42;;;;;;;3.75;3.33;;;;;;;24.32;46.54;102463.03;5020551;28;20057;-71
2023/06/24 05:11:08;;;;;;;4.80;3.97;;;;;;;24.34;46.53;102469.03;5022857;28;20038;-71
2023/06/24 05:13:34;;;;;;;4.47;3.78;;;;;;;24.33;46.61;102467.38;5027494;28;20041;-71
2023/06/24 05:15:59;;;;;;;3.60;3.30;;;;;;;24.35;46.47;102475.19;5028285;28;20037;-71
2023/06/24 05:18:25;;;;;;;4.70;3.75;;;;;;;24.35;46.56;102477.84;5026161;28;20053;-71
2023/06/24 05:20:50;;;;;;;5.57;3.55;;;;;;;24.30;46.44;102473.03;5024332;28;20064;-71
2023/06/24 05:23:16;;;;;;;3.85;3.38;;;;;;;24.33;46.49;102471.88;5052577;28;20129;-71
2023/06/24 05:25:41;;;;;;;5.30;4.15;;;;;;;24.36;46.43;102469.69;5018278;28;20052;-71
2023/06/24 05:28:07;;;;;;;4.22;3.83;;;;;;;24.35;46.47;102469.84;5024279;28;20053;-70
2023/06/24 05:30:32;;;;;;;4.97;3.92;;;;;;;24.32;46.46;102465.72;5024684;28;20044;-71
2023/06/24 05:32:58;;;;;;;3.97;3.58;;;;;;;24.37;46.48;102467.84;5026850;28;20503;-71
2023/06/24 05:35:23;;;;;;;4.57;3.72;;;;;;;24.35;46.41;102453.88;5030176;28;20048;-70
2023/06/24 05:37:49;;;;;;;4.55;3.70;;;;;;;24.36;46.62;102460.88;5025698;28;20041;-71
2023/06/24 05:40:14;;;;;;;4.57;3.60;;;;;;;24.37;46.52;102455.38;5024404;28;20041;-70
2023/06/24 05:42:40;;;;;;;5.30;3.80;;;;;;;24.38;46.30;102453.53;5020672;28;20046;-70
2023/06/24 05:45:06;;;;;;;4.63;3.90;;;;;;;24.38;46.34;102453.53;5025324;28;20391;-70
2023/06/24 05:47:32;;;;;;;4.25;3.58;;;;;;;24.37;46.52;102442.06;5025590;28;20055;-70
2023/06/24 05:49:58;;;;;;;5.30;3.95;;;;;;;24.37;46.54;102450.03;5022653;28;20105;-70
2023/06/24 05:52:23;;;;;;;4.10;3.17;;;;;;;24.38;46.52;102442.88;5033243;28;20048;-71
2023/06/24 05:54:49;;;;;;;4.18;3.53;;;;;;;24.38;46.51;102445.53;5024369;28;20084;-70
2023/06/24 05:57:14;;;;;;;5.72;4.00;;;;;;;24.37;46.41;102444.72;5030391;28;20124;-70
2023/06/24 05:59:40;;;;;;;4.90;3.72;;;;;;;24.38;46.26;102449.03;5027117;28;20042;-70
2023/06/24 06:02:05;;;;;;;4.63;3.97;;;;;;;24.40;46.13;102452.34;5024127;28;20045;-70
2023/06/24 06:04:32;;;;;;;4.25;3.60;;;;;;;24.40;46.32;102452.34;5025442;28;20048;-70
2023/06/24 06:06:57;;;;;;;4.03;3.55;;;;;;;24.33;46.22;102439.91;5030212;28;20041;-70
2023/06/24 06:09:23;;;;;;;5.82;3.58;;;;;;;24.42;46.17;102449.56;5024937;28;20033;-70
2023/06/24 06:11:48;;;;;;;4.38;3.58;;;;;;;24.42;46.43;102449.56;5026783;28;20060;-70
2023/06/24 06:14:14;;;;;;;4.13;3.58;;;;;;;24.43;46.27;102453.03;5029715;28;20034;-68
2023/06/24 06:16:39;;;;;;;3.78;3.33;;;;;;;24.43;46.41;102453.88;5023860;28;20135;-70
2023/06/24 06:19:05;;;;;;;3.92;3.53;;;;;;;24.46;46.35;102455.34;5028063;28;20051;-71
2023/06/24 06:21:31;;;;;;;4.07;3.65;;;;;;;24.47;46.27;102460.50;5025923;28;20049;-70
2023/06/24 06:23:57;;;;;;;4.00;3.30;;;;;;;24.45;46.32;102453.69;5030446;28;20041;-71
2023/06/24 06:26:22;;;;;;;5.05;3.80;;;;;;;24.48;46.14;102461.34;5023100;28;20044;-71
2023/06/24 06:28:48;;;;;;;4.00;3.20;;;;;;;24.49;46.40;102458.50;5023816;28;20049;-69
2023/06/24 06:31:14;;;;;;;3.70;3.25;;;;;;;24.50;46.09;102462.00;5024335;28;20044;-70
2023/06/24 06:33:40;;;;;;;4.38;3.95;;;;;;;24.43;46.24;102448.56;5023177;28;20072;-70
2023/06/24 06:36:06;;;;;;;4.20;3.55;;;;;;;24.53;46.21;102467.81;5024637;28;20041;-71
2023/06/24 06:38:34;;;;;;;3.70;3.30;;;;;;;24.55;46.14;102462.31;5020776;28;20037;-70
2023/06/24 06:41:00;;;;;;;5.47;3.80;;;;;;;24.56;45.99;102455.97;5023994;28;20045;-70
2023/06/24 06:43:25;;;;;;;3.80;3.38;;;;;;;24.58;46.08;102456.63;5021772;28;20030;-67
2023/06/24 06:45:51;;;;;;;5.93;4.20;;;;;;;24.60;46.15;102459.97;5025872;28;20773;-69
2023/06/24 06:48:16;;;;;;;5.65;3.70;;;;;;;24.62;46.03;102457.97;5019566;28;20041;-70
2023/06/24 06:50:42;;;;;;;5.10;4.60;;;;;;;24.64;46.00;102455.97;5024432;28;20046;-69
2023/06/24 06:53:08;;;;;;;5.90;4.15;;;;;;;24.66;45.99;102459.28;5017966;28;20089;-70
2023/06/24 06:55:33;;;;;;;8.68;4.60;;;;;;;24.68;45.97;102451.94;5021757;28;20087;-69
2023/06/24 06:57:59;;;;;;;7.22;4.13;;;;;;;24.69;45.97;102454.44;5014550;28;20037;-70
2023/06/24 07:00:24;;;;;;;6.45;4.40;;;;;;;24.72;46.01;102463.91;5022064;28;20029;-68
2023/06/24 07:02:50;;;;;;;6.60;4.68;;;;;;;24.74;45.87;102458.41;5021355;28;20033;-69
2023/06/24 07:05:15;;;;;;;6.90;4.35;;;;;;;24.79;45.79;102456.91;5023000;28;20120;-69
2023/06/24 07:07:45;;;;;;;11.13;4.57;;;;;;;24.80;45.76;102453.22;5027069;28;20495;-69
2023/06/24 07:10:10;;;;;;;8.13;4.15;;;;;;;24.84;45.52;102457.19;5022815;28;20523;-69
2023/06/24 07:12:36;;;;;;;6.50;4.35;;;;;;;24.87;45.65;102458.69;5027769;28;20033;-69
2023/06/24 07:15:02;;;;;;;6.80;4.57;;;;;;;24.86;45.59;102446.38;5026914;28;20451;-69
2023/06/24 07:17:27;;;;;;;6.35;4.55;;;;;;;24.95;45.52;102448.78;5024557;28;20038;-69
2023/06/24 07:19:53;;;;;;;6.22;5.13;;;;;;;24.98;45.31;102458.31;5025668;28;20235;-69
2023/06/24 07:22:18;;;;;;;6.20;4.35;;;;;;;24.98;45.35;102451.13;5027414;28;20076;-69
2023/06/24 07:24:44;;;;;;;7.82;4.75;;;;;;;25.02;45.20;102456.16;5023176;28;20064;-68
2023/06/24 07:27:09;;;;;;;6.22;4.53;;;;;;;25.03;45.17;102455.97;5022558;28;20497;-69
2023/06/24 07:29:35;;;;;;;5.03;4.03;;;;;;;25.05;45.16;102455.78;5025073;28;20060;-69
2023/06/24 07:32:01;;;;;;;9.63;5.15;;;;;;;25.05;45.47;102456.63;5024785;28;20052;-68
2023/06/24 07:34:29;;;;;;;7.22;4.45;;;;;;;25.07;45.36;102464.44;5032114;28;20041;-69
2023/06/24 07:36:54;;;;;;;5.68;4.57;;;;;;;25.05;45.32;102456.63;5023709;28;20042;-69
2023/06/24 07:39:20;;;;;;;6.65;4.55;;;;;;;25.03;45.16;102453.31;5022052;28;20056;-68
2023/06/24 07:41:45;;;;;;;5.85;5.10;;;;;;;25.06;45.15;102457.44;5023008;28;20045;-69
2023/06/24 07:44:11;;;;;;;9.25;5.30;;;;;;;25.06;45.33;102458.28;5023811;28;20041;-69
2023/06/24 07:46:36;;;;;;;9.15;5.45;;;;;;;25.09;45.25;102457.09;5023108;28;20431;-70
2023/06/24 07:49:02;;;;;;;6.05;4.45;;;;;;;25.11;45.26;102458.56;5023744;28;20045;-71
2023/06/24 07:51:27;;;;;;;10.30;4.75;;;;;;;25.14;45.18;102458.25;5015000;28;20048;-70
2023/06/24 07:53:53;;;;;;;5.55;4.20;;;;;;;25.15;45.17;102459.91;5023834;28;20422;-70
2023/06/24 07:56:18;;;;;;;5.65;4.50;;;;;;;25.15;45.10;102451.91;5017983;28;20064;-70
2023/06/24 07:58:44;;;;;;;5.18;4.20;;;;;;;25.15;45.12;102451.06;5021328;28;20486;-70
2023/06/24 08:01:09;;;;;;;5.32;4.05;;;;;;;25.18;45.17;102451.56;5024063;28;20037;-69
2023/06/24 08:03:38;;;;;;;5.20;4.38;;;;;;;25.19;45.09;102449.72;5024638;28;20046;-70
2023/06/24 08:06:04;;;;;;;4.82;3.88;;;;;;;25.18;45.11;102448.88;5025881;28;20423;-70
2023/06/24 08:08:29;;;;;;;4.85;4.00;;;;;;;25.17;44.97;102449.88;5019872;28;20045;-70
2023/06/24 08:10:55;;;;;;;6.68;4.32;;;;;;;25.17;45.11;102451.72;5022056;28;20045;-68
2023/06/24 08:13:21;;;;;;;5.47;4.38;;;;;;;25.12;44.92;102446.06;5022103;28;20419;-68
2023/06/24 08:15:46;;;;;;;5.35;4.03;;;;;;;25.12;45.00;102446.91;5025368;28;20388;-68
2023/06/24 08:18:12;;;;;;;5.53;4.22;;;;;;;25.15;45.08;102449.25;5020330;28;20049;-68
2023/06/24 08:20:38;;;;;;;4.60;3.97;;;;;;;25.15;45.04;102451.91;5022246;28;20045;-68
2023/06/24 08:23:03;;;;;;;5.97;4.85;;;;;;;25.16;45.08;102452.72;5027868;28;20567;-69
2023/06/24 08:25:30;;;;;;;4.63;3.67;;;;;;;25.17;44.90;102449.88;5022295;28;20050;-68
2023/06/24 08:27:55;;;;;;;5.65;4.30;;;;;;;25.17;45.34;102447.22;5023256;28;20029;-69
2023/06/24 08:30:21;;;;;;;4.95;3.63;;;;;;;25.18;45.09;102448.06;5021534;28;20289;-68
2023/06/24 08:32:47;;;;;;;5.43;3.95;;;;;;;25.17;45.09;102449.88;5019331;28;20038;-68
2023/06/24 08:35:12;;;;;;;8.63;4.30;;;;;;;25.18;45.11;102445.38;5033798;28;20053;-67
2023/06/24 08:37:38;;;;;;;6.85;4.03;;;;;;;25.24;44.97;102448.16;5032575;28;20037;-72
2023/06/24 08:40:04;;;;;;;4.82;4.25;;;;;;;25.26;45.11;102442.66;5027486;28;20400;-69
2023/06/24 08:42:30;;;;;;;8.65;4.40;;;;;;;25.27;44.84;102444.31;5026910;28;20042;-69
2023/06/24 08:44:56;;;;;;;5.95;4.32;;;;;;;25.35;45.25;102448.78;5031461;28;20116;-68
2023/06/24 08:47:24;;;;;;;9.40;4.57;;;;;;;25.38;44.85;102449.25;5023673;28;20037;-67
2023/06/24 08:49:56;;;;;;;7.55;3.85;;;;;;;25.39;44.91;102445.56;5030689;28;20033;-67
2023/06/24 08:52:26;;;;;;;10.73;4.38;;;;;;;25.42;45.22;102450.53;5031125;28;20095;-66
2023/06/24 08:54:54;;;;;;;5.68;3.63;;;;;;;25.45;44.94;102449.34;5031113;28;20044;-68
2023/06/24 08:57:20;;;;;;;4.15;3.63;;;;;;;25.46;45.14;102443.00;5030608;28;20108;-70
2023/06/24 08:59:46;;;;;;;4.68;3.75;;;;;;;25.43;45.10;102432.69;5029285;28;20059;-70
2023/06/24 09:02:13;;;;;;;5.97;3.88;;;;;;;25.49;45.21;102440.81;5033560;28;20056;-71
2023/06/24 09:04:39;;;;;;;6.22;4.00;;;;;;;25.47;45.24;102448.16;5035637;28;20044;-70
2023/06/24 09:07:05;;;;;;;5.40;3.70;;;;;;;25.44;45.28;102440.53;5034702;28;20045;-74
2023/06/24 09:09:31;;;;;;;4.60;3.80;;;;;;;25.46;45.44;102440.34;5031260;28;20038;-72
2023/06/24 09:12:01;;;;;;;5.32;4.05;;;;;;;25.46;45.27;102446.50;5022675;28;20487;-68
2023/06/24 09:14:29;;;;;;;5.07;3.95;;;;;;;25.42;45.37;102444.38;5023731;28;21525;-69
2023/06/24 09:16:58;;;;;;;6.35;3.97;;;;;;;25.41;45.11;102443.56;5027926;28;20051;-67
2023/06/24 09:19:28;;;;;;;4.80;3.88;;;;;;;25.40;45.12;102449.06;5024173;28;21500;-67
2023/06/24 09:21:53;;;;;;;6.55;3.63;;;;;;;25.37;45.31;102449.44;5024203;28;20084;-68
2023/06/24 09:24:19;;;;;;;7.03;3.83;;;;;;;25.36;45.52;102453.94;5023404;28;20057;-67
2023/06/24 09:26:45;;;;;;;5.75;4.13;;;;;;;25.35;45.25;102446.94;5025176;28;20041;-67
2023/06/24 09:29:14;;;;;;;4.78;4.07;;;;;;;25.36;45.17;102443.25;5025775;28;20038;-67
2023/06/24 09:31:49;;;;;;;;;;;;;;;25.37;45.18;102438.75;5025247;28;20132;-67
2023/06/24 09:34:15;;;;;;;9.00;3.25;;;;;;;25.37;45.20;102433.44;5025534;28;20039;-67
2023/06/24 09:36:45;;;;;;;5.95;4.03;;;;;;;25.37;45.19;102433.44;5027139;28;20037;-67
2023/06/24 09:39:11;;;;;;;;;;;;;;;25.36;45.11;102435.25;5030516;28;20479;-66
2023/06/24 09:41:40;;;;;;;8.18;3.83;;;;;;;25.33;44.54;102440.97;5021708;28;19928;-70
2023/06/24 09:44:11;;;;;;;6.93;4.15;;;;;;;25.32;44.81;102428.63;5024520;28;20030;-70
2023/06/24 09:46:37;;;;;;;5.28;4.38;;;;;;;25.29;44.67;102429.78;5020825;28;20084;-69
2023/06/24 09:49:06;;;;;;;9.98;4.00;;;;;;;25.30;44.75;102419.97;5031843;28;20053;-70
2023/06/24 09:51:39;;;;;;;5.72;4.10;;;;;;;25.29;44.61;102416.47;5034352;28;20100;-70
2023/06/24 09:54:09;;;;;;;7.05;3.63;;;;;;;25.30;44.87;102411.97;5015297;28;20108;-70
2023/06/24 09:56:39;;;;;;;4.95;3.50;;;;;;;25.30;44.95;102407.44;5033048;28;20037;-70
2023/06/24 09:59:05;;;;;;;5.55;3.97;;;;;;;25.30;44.37;102410.13;5029477;28;20041;-70
2023/06/24 10:01:32;;;;;;;5.03;4.15;;;;;;;25.32;44.73;102409.97;5026953;28;20098;-70
2023/06/24 10:03:59;;;;;;;6.55;4.40;;;;;;;25.30;44.64;102404.78;5038164;28;20042;-70
2023/06/24 10:06:28;;;;;;;5.80;3.80;;;;;;;25.32;44.60;102407.31;5034768;28;20190;-70
2023/06/24 10:08:54;;;;;;;6.63;3.67;;;;;;;25.35;44.62;102414.94;5034123;28;20069;-70
2023/06/24 10:11:20;;;;;;;4.60;4.03;;;;;;;25.35;44.65;102406.13;5030324;28;20057;-69
2023/06/24 10:13:46;;;;;;;6.95;3.85;;;;;;;25.32;44.51;102401.13;5032788;28;20049;-70
2023/06/24 10:16:12;;;;;;;4.88;4.00;;;;;;;25.35;44.12;102411.44;5041511;28;20075;-70
2023/06/24 10:18:39;;;;;;;6.68;4.25;;;;;;;25.32;44.52;102401.97;5028539;28;20038;-69
2023/06/24 10:21:08;;;;;;;7.93;3.85;;;;;;;25.32;44.52;102407.31;5034526;28;20033;-70
2023/06/24 10:23:41;;;;;;;6.47;3.85;;;;;;;25.32;44.81;102406.47;5050074;28;20065;-70
2023/06/24 10:26:21;;;;;;;5.90;3.95;;;;;;;25.31;44.50;102402.94;5035933;28;20087;-70
2023/06/24 10:29:04;;;;;;;;;;;;;;;25.28;44.47;102403.31;5032410;28;20040;-70
2023/06/24 10:31:39;;;;;;;5.38;4.07;;;;;;;25.27;44.67;102397.16;5026044;28;19975;-70
2023/06/24 10:34:20;;;;;;;5.60;4.13;;;;;;;25.28;44.38;102392.66;5024423;28;20076;-70
2023/06/24 10:36:55;;;;;;;6.18;3.60;;;;;;;25.28;44.40;102400.63;5033229;28;20605;-70
2023/06/24 10:39:40;;;;;;;5.30;4.47;;;;;;;25.25;44.61;102401.84;5028825;28;20041;-70
2023/06/24 10:42:35;;;;;;;5.68;4.13;;;;;;;25.26;44.35;102400.00;5026646;28;20040;-70
2023/06/24 10:45:10;;;;;;;5.93;4.20;;;;;;;25.26;44.20;102398.16;5027175;28;20033;-70
2023/06/24 10:47:47;;;;;;;5.40;3.80;;;;;;;25.23;44.31;102398.53;5028420;28;20052;-70
2023/06/24 10:50:15;;;;;;;5.90;3.78;;;;;;;25.25;45.05;102403.66;5028349;28;20137;-69
2023/06/24 10:52:42;;;;;;;5.13;3.95;;;;;;;25.25;44.39;102391.16;5026010;28;20159;-70
2023/06/24 10:55:08;;;;;;;4.28;3.80;;;;;;;25.26;44.50;102392.00;5026267;28;20614;-70
2023/06/24 10:57:34;;;;;;;5.95;3.60;;;;;;;25.25;44.73;102390.34;5025406;28;20045;-69
2023/06/24 11:00:02;;;;;;;6.15;3.90;;;;;;;25.24;44.94;102388.69;5028697;28;20037;-70
2023/06/24 11:02:27;;;;;;;5.85;3.83;;;;;;;25.24;44.52;102392.19;5028417;28;20033;-69
2023/06/24 11:04:58;;;;;;;6.20;4.05;;;;;;;25.24;44.57;102388.69;5029712;28;20043;-69
2023/06/24 11:07:26;;;;;;;5.47;3.90;;;;;;;25.24;44.29;102394.00;5027705;28;20144;-69
2023/06/24 11:09:56;;;;;;;4.90;3.92;;;;;;;25.21;44.51;102386.38;5032196;28;20037;-69
2023/06/24 11:12:26;;;;;;;5.53;3.60;;;;;;;25.25;44.41;102382.34;5027064;28;20182;-67
2023/06/24 11:15:01;;;;;;;6.28;4.00;;;;;;;25.30;44.75;102379.97;5025483;28;20034;-68
2023/06/24 11:17:27;;;;;;;4.72;3.97;;;;;;;25.29;44.49;102381.78;5025907;28;20080;-68
2023/06/24 11:19:54;;;;;;;6.55;4.40;;;;;;;25.34;44.47;102378.63;5026688;28;20127;-68
2023/06/24 11:22:20;;;;;;;5.45;3.75;;;;;;;25.35;44.46;102379.44;5024578;28;20045;-70
2023/06/24 11:24:45;;;;;;;4.38;3.60;;;;;;;25.34;44.46;102372.47;5027399;28;20034;-68
2023/06/24 11:27:11;;;;;;;4.40;3.60;;;;;;;25.33;44.44;102373.47;5030099;28;20037;-68
2023/06/24 11:29:36;;;;;;;4.40;3.58;;;;;;;25.34;44.50;102365.28;5025316;28;20438;-68